createdAt,value
2023-06-09T00:02:17.117Z,101731.66
2023-06-09T00:07:18.732Z,101719.09
2023-06-09T00:12:20.315Z,101715.00
2023-06-09T00:17:25.446Z,101718.94
2023-06-09T00:22:27.914Z,101711.75
2023-06-09T00:27:30.543Z,101723.06
2023-06-09T00:32:32.255Z,101707.13
2023-06-09T00:37:33.936Z,101715.00
2023-06-09T00:42:35.500Z,101721.00
2023-06-09T00:47:37.237Z,101712.75
2023-06-09T00:52:38.807Z,101709.84
2023-06-09T00:57:40.864Z,101718.22
2023-06-09T01:02:42.478Z,101705.88
2023-06-09T01:07:51.564Z,101711.59
2023-06-09T01:13:25.041Z,101698.19
2023-06-09T01:18:31.940Z,101700.91
2023-06-09T01:23:52.670Z,101712.03
2023-06-09T01:28:56.311Z,101701.19
2023-06-09T01:33:58.203Z,101690.56
2023-06-09T01:38:59.856Z,101687.47
2023-06-09T01:44:01.405Z,101684.78
2023-06-09T01:49:02.876Z,101679.28
2023-06-09T01:54:12.901Z,101668.13
2023-06-09T01:59:21.801Z,101681.63
2023-06-09T02:04:26.543Z,101674.44
2023-06-09T02:09:28.186Z,101671.69
2023-06-09T02:14:34.194Z,101656.59
2023-06-09T02:19:39.830Z,101661.53
2023-06-09T02:24:41.407Z,101672.88
2023-06-09T02:29:43.031Z,101657.28
2023-06-09T02:34:46.297Z,101662.09
2023-06-09T02:39:47.880Z,101653.88
2023-06-09T02:44:49.888Z,101658.66
2023-06-09T02:49:51.567Z,101648.91
2023-06-09T02:54:53.099Z,101656.44
2023-06-09T02:59:55.130Z,101652.13
2023-06-09T03:04:57.810Z,101651.09
2023-06-09T03:10:01.068Z,101647.50
2023-06-09T03:15:02.650Z,101653.84
2023-06-09T03:20:07.349Z,101654.38
2023-06-09T03:25:10.214Z,101652.84
2023-06-09T03:30:12.548Z,101664.13
2023-06-09T03:35:14.269Z,101666.03
2023-06-09T03:40:16.439Z,101654.91
2023-06-09T03:45:18.080Z,101645.81
2023-06-09T03:50:19.821Z,101653.53
2023-06-09T03:55:23.611Z,101640.84
2023-06-09T04:00:25.284Z,101626.78
2023-06-09T04:05:26.965Z,101626.25
2023-06-09T04:10:28.524Z,101638.59
2023-06-09T04:15:30.094Z,101630.03
2023-06-09T04:20:31.624Z,101624.22
2023-06-09T04:25:35.876Z,101634.88
2023-06-09T04:30:39.272Z,101637.81
2023-06-09T04:35:42.295Z,101636.97
2023-06-09T04:40:46.626Z,101641.06
2023-06-09T04:45:48.218Z,101639.84
2023-06-09T04:50:50.725Z,101637.78
2023-06-09T04:55:53.313Z,101645.16
2023-06-09T05:00:54.883Z,101638.44
2023-06-09T05:05:56.440Z,101649.88
2023-06-09T05:10:59.067Z,101649.88
2023-06-09T05:16:00.751Z,101659.63
2023-06-09T05:21:02.343Z,101658.69
2023-06-09T05:26:03.945Z,101656.44
2023-06-09T05:31:05.495Z,101663.41
2023-06-09T05:36:07.790Z,101667.34
2023-06-09T05:41:09.332Z,101654.41
2023-06-09T05:46:10.909Z,101656.28
2023-06-09T05:51:13.728Z,101666.50
2023-06-09T05:56:18.118Z,101665.25
2023-06-09T06:01:21.015Z,101643.22
2023-06-09T06:06:22.690Z,101655.63
2023-06-09T06:11:24.448Z,101651.00
2023-06-09T06:16:26.013Z,101648.88
2023-06-09T06:21:27.520Z,101658.91
2023-06-09T06:26:30.175Z,101651.97
2023-06-09T06:31:32.283Z,101652.06
2023-06-09T06:36:34.175Z,101657.03
2023-06-09T06:41:35.687Z,101651.81
2023-06-09T06:46:37.309Z,101664.31
2023-06-09T06:51:41.300Z,101659.66
2023-06-09T06:56:42.861Z,101656.31
2023-06-09T07:01:44.418Z,101646.81
2023-06-09T07:06:46.960Z,101653.75
2023-06-09T07:11:48.549Z,101659.75
2023-06-09T07:16:50.107Z,101657.53
2023-06-09T07:21:51.622Z,101660.69
2023-06-09T07:26:54.422Z,101671.16
2023-06-09T07:31:56.120Z,101668.50
2023-06-09T07:36:58.122Z,101670.06
2023-06-09T07:41:59.680Z,101660.19
2023-06-09T07:47:01.184Z,101665.13
2023-06-09T07:52:10.034Z,101666.88
2023-06-09T07:57:22.730Z,101667.44
2023-06-09T08:02:24.821Z,101670.81
2023-06-09T08:07:27.409Z,101673.31
2023-06-09T08:12:28.931Z,101657.47
2023-06-09T08:17:30.584Z,101662.88
2023-06-09T08:22:32.189Z,101662.59
2023-06-09T08:27:34.044Z,101651.66
2023-06-09T08:32:36.616Z,101646.75
2023-06-09T08:37:38.547Z,101648.97
2023-06-09T08:42:40.878Z,101642.84
2023-06-09T08:47:47.807Z,101639.47
2023-06-09T08:52:49.959Z,101646.53
2023-06-09T08:57:52.441Z,101640.53
2023-06-09T09:02:54.216Z,101641.69
2023-06-09T09:07:55.754Z,101645.06
2023-06-09T09:12:57.438Z,101651.88
2023-06-09T09:17:58.997Z,101646.31
2023-06-09T09:23:00.616Z,101654.38
2023-06-09T09:28:07.507Z,101642.16
2023-06-09T09:33:10.094Z,101635.50
2023-06-09T09:38:21.077Z,101635.25
2023-06-09T09:43:25.930Z,101634.31
2023-06-09T09:48:27.676Z,101634.97
2023-06-09T09:53:29.247Z,101628.63
2023-06-09T09:58:35.829Z,101623.19
2023-06-09T10:03:45.438Z,101627.19
2023-06-09T10:08:47.922Z,101627.91
2023-06-09T10:13:49.620Z,101620.66
2023-06-09T10:18:51.985Z,101623.59
2023-06-09T10:23:54.249Z,101629.75
2023-06-09T10:28:56.013Z,101618.22
2023-06-09T10:33:57.984Z,101619.09
2023-06-09T10:39:15.197Z,101613.09
2023-06-09T10:44:35.268Z,101599.81
2023-06-09T10:49:40.092Z,101605.84
2023-06-09T10:54:41.781Z,101607.94
2023-06-09T10:59:49.066Z,101598.22
2023-06-09T11:04:53.391Z,101602.22
2023-06-09T11:09:57.892Z,101591.38
2023-06-09T11:15:00.460Z,101586.41
2023-06-09T11:20:13.317Z,101584.69
2023-06-09T11:25:18.165Z,101575.84
2023-06-09T11:30:20.290Z,101562.94
2023-06-09T11:35:31.056Z,101566.16
2023-06-09T11:40:38.565Z,101553.44
2023-06-09T11:45:40.149Z,101545.88
2023-06-09T11:50:48.005Z,101549.88
2023-06-09T11:55:59.665Z,101539.88
2023-06-09T12:01:01.180Z,101532.09
2023-06-09T12:06:02.949Z,101533.19
2023-06-09T12:11:04.676Z,101544.44
2023-06-09T12:16:06.296Z,101546.16
2023-06-09T12:21:10.438Z,101538.59
2023-06-09T12:26:14.360Z,101519.47
2023-06-09T12:31:16.055Z,101528.78
2023-06-09T12:36:17.914Z,101521.44
2023-06-09T12:41:19.740Z,101516.25
2023-06-09T12:46:27.258Z,101513.97
2023-06-09T12:51:29.702Z,101518.09
2023-06-09T12:56:32.054Z,101503.25
2023-06-09T13:01:33.725Z,101500.97
2023-06-09T13:06:35.879Z,101497.41
2023-06-09T13:11:37.810Z,101504.19
2023-06-09T13:16:39.407Z,101494.69
2023-06-09T13:21:44.958Z,101497.88
2023-06-09T13:26:49.179Z,101504.66
2023-06-09T13:31:50.957Z,101491.84
2023-06-09T13:36:53.793Z,101491.91
2023-06-09T13:41:55.309Z,101483.84
2023-06-09T13:46:56.846Z,101472.50
2023-06-09T13:51:58.356Z,101481.06
2023-06-09T13:56:59.843Z,101468.66
2023-06-09T14:02:01.506Z,101460.09
2023-06-09T14:07:03.748Z,101471.66
2023-06-09T14:12:10.039Z,101461.50
2023-06-09T14:17:12.119Z,101457.44
2023-06-09T14:22:13.698Z,101448.16
2023-06-09T14:27:15.370Z,101440.66
2023-06-09T14:32:16.916Z,101437.91
2023-06-09T14:37:18.456Z,101431.22
2023-06-09T14:42:20.062Z,101429.25
2023-06-09T14:47:21.651Z,101426.72
2023-06-09T14:52:23.210Z,101420.91
2023-06-09T14:57:24.766Z,101422.34
2023-06-09T15:02:26.488Z,101418.19
2023-06-09T15:07:28.017Z,101414.59
2023-06-09T15:12:29.612Z,101407.09
2023-06-09T15:17:35.471Z,101400.31
2023-06-09T15:22:39.332Z,101404.25
2023-06-09T15:27:45.592Z,101407.38
2023-06-09T15:32:49.439Z,101397.03
2023-06-09T15:37:51.062Z,101404.06
2023-06-09T15:42:52.603Z,101389.91
2023-06-09T15:47:54.554Z,101394.34
2023-06-09T15:52:56.243Z,101389.75
2023-06-09T15:57:58.244Z,101394.75
2023-06-09T16:03:05.116Z,101391.16
2023-06-09T16:08:09.294Z,101387.41
2023-06-09T16:13:11.105Z,101387.84
2023-06-09T16:18:14.243Z,101390.56
2023-06-09T16:23:16.023Z,101386.75
2023-06-09T16:28:17.601Z,101383.56
2023-06-09T16:33:19.246Z,101375.84
2023-06-09T16:38:20.816Z,101372.47
2023-06-09T16:43:22.382Z,101368.13
2023-06-09T16:48:23.896Z,101367.66
2023-06-09T16:53:25.472Z,101373.69
2023-06-09T16:58:27.137Z,101362.56
2023-06-09T17:03:28.786Z,101365.09
2023-06-09T17:08:30.419Z,101368.31
2023-06-09T17:13:32.041Z,101372.31
2023-06-09T17:18:33.603Z,101376.25
2023-06-09T17:23:35.213Z,101381.00
2023-06-09T17:28:36.858Z,101376.41
2023-06-09T17:33:38.416Z,101371.84
2023-06-09T17:38:39.984Z,101369.25
2023-06-09T17:43:41.541Z,101380.84
2023-06-09T17:48:44.918Z,101381.16
2023-06-09T17:53:46.547Z,101390.88
2023-06-09T17:58:48.124Z,101375.38
2023-06-09T18:03:49.672Z,101391.78
2023-06-09T18:08:51.504Z,101387.06
2023-06-09T18:13:53.402Z,101386.00
2023-06-09T18:18:55.011Z,101397.50
2023-06-09T18:23:56.943Z,101395.31
2023-06-09T18:28:58.743Z,101402.47
2023-06-09T18:34:00.556Z,101401.16
2023-06-09T18:39:02.221Z,101429.78
2023-06-09T18:44:15.561Z,101423.06
2023-06-09T18:49:17.175Z,101434.34
2023-06-09T18:54:18.763Z,101430.56
2023-06-09T18:59:20.739Z,101434.56
2023-06-09T19:04:22.767Z,101437.03
2023-06-09T19:09:24.455Z,101437.13
2023-06-09T19:14:26.024Z,101441.97
2023-06-09T19:19:27.537Z,101449.34
2023-06-09T19:24:29.100Z,101456.31
2023-06-09T19:29:30.995Z,101452.91
2023-06-09T19:34:32.678Z,101462.19
2023-06-09T19:39:34.312Z,101471.59
2023-06-09T19:44:35.853Z,101469.50
2023-06-09T19:49:37.422Z,101474.16
2023-06-09T19:54:39.627Z,101495.66
2023-06-09T19:59:41.248Z,101505.25
2023-06-09T20:04:42.978Z,101500.06
2023-06-09T20:09:44.917Z,101510.59
2023-06-09T20:14:47.455Z,101523.31
2023-06-09T20:19:49.269Z,101525.34
2023-06-09T20:24:50.960Z,101533.75
2023-06-09T20:29:52.634Z,101530.19
2023-06-09T20:34:54.177Z,101547.78
2023-06-09T20:39:56.068Z,101546.78
2023-06-09T20:44:57.600Z,101563.97
2023-06-09T20:49:59.209Z,101560.16
2023-06-09T20:55:01.199Z,101553.78
2023-06-09T21:00:03.512Z,101559.78
2023-06-09T21:05:06.378Z,101557.50
2023-06-09T21:10:08.518Z,101557.72
2023-06-09T21:15:10.794Z,101564.97
2023-06-09T21:20:13.449Z,101560.03
2023-06-09T21:25:16.482Z,101571.59
2023-06-09T21:30:18.066Z,101568.00
2023-06-09T21:35:19.645Z,101564.19
2023-06-09T21:40:21.244Z,101565.50
2023-06-09T21:45:24.162Z,101567.22
2023-06-09T21:50:25.757Z,101574.25
2023-06-09T21:55:27.592Z,101567.69
2023-06-09T22:00:30.426Z,101576.63
2023-06-09T22:05:31.970Z,101574.09
2023-06-09T22:10:35.497Z,101577.91
2023-06-09T22:15:37.023Z,101580.91
2023-06-09T22:20:38.799Z,101574.28
2023-06-09T22:25:40.411Z,101573.47
2023-06-09T22:30:42.289Z,101576.44
2023-06-09T22:35:44.015Z,101574.75
2023-06-09T22:40:46.212Z,101579.00
2023-06-09T22:45:47.843Z,101583.03
2023-06-09T22:50:49.412Z,101582.41
2023-06-09T22:55:51.715Z,101584.34
2023-06-09T23:00:53.258Z,101587.06
2023-06-09T23:05:56.988Z,101577.91
2023-06-09T23:10:58.732Z,101585.13
2023-06-09T23:16:00.393Z,101586.66
2023-06-09T23:21:03.143Z,101579.81
2023-06-09T23:26:05.263Z,101578.53
2023-06-09T23:31:07.382Z,101584.94
2023-06-09T23:36:08.934Z,101586.81
2023-06-09T23:41:10.430Z,101595.34
2023-06-09T23:46:12.014Z,101600.91
2023-06-09T23:51:13.647Z,101598.34
2023-06-09T23:56:15.190Z,101597.06
